KCFV - Coffeyville, Kansas, USA
Distance from station: ENE 93mi, 150km
Updated: Sun, 29-Nov-2020 7:52pm PST
Clear
Clear
 Wind from NNW
Wind: NNW 14 mph , 22 km/h, Gust: 23 mph , 37 km/h
Temperature: 36°F , 2°C
Wind Chill: 27°F , -3°C
Dew Point: 19°F , -7°C
Humidity: 52%
Barometer: 30.33 inHg , 1027.1 hPa
Clouds: Clear
Visibility: 10 miles , 16 km
2020/11/30 03:52 KCFV 300352Z AUTO 34012G20KT 10SM CLR 02/M07 A3033 RMK AO2 SLP275 T00171067 $
KIDP - Independence, Kansas, USA
Distance from station: NE 86mi, 138km
Updated: Sun, 29-Nov-2020 8:35pm PST
Clear
Clear
 Wind from N
Wind: N 21 mph , 33 km/h, Gust: 24 mph , 39 km/h
Temperature: 34°F , 1°C
Wind Chill: 22°F , -6°C
Dew Point: 21°F , -6°C
Humidity: 60%
Barometer: 30.36 inHg , 1028.1 hPa
Clouds: Clear
Visibility: 10 miles , 16 km
2020/11/30 04:35 KIDP 300435Z AUTO 35018G21KT 10SM CLR 01/M06 A3036 RMK AO2 T00111061
 
KIAB - Mcconnell Afb, Kansas, USA
Distance from station: N 84mi, 135km
Updated: Sun, 29-Nov-2020 7:56pm PST
Clear
Clear
 Wind from N
Wind: N 17 mph , 28 km/h
Temperature: 34°F , 1°C
Wind Chill: 23°F , -5°C
Dew Point: 16°F , -9°C
Humidity: 48%
Barometer: 30.39 inHg , 1029.1 hPa
Clouds: Clear
Visibility: 10 miles , 16 km
2020/11/30 03:56 KIAB 300356Z AUTO 01015KT 10SM CLR 01/M09 A3039 RMK AO2 PK WND 01029/09 SLP303 T00051093 $
KICT - Wichita, Kansas, USA
Distance from station: NNW 88mi, 142km
Updated: Sun, 29-Nov-2020 7:53pm PST
Clear
Clear
 Wind from NNW
Wind: NNW 16 mph , 26 km/h
Temperature: 32°F , 0°C
Wind Chill: 21°F , -6°C
Dew Point: 19°F , -7°C
Humidity: 60%
Barometer: 30.41 inHg , 1029.8 hPa
Clouds: Clear
Visibility: 10 miles , 16 km
2020/11/30 03:53 KICT 300353Z 34014KT 10SM CLR 00/M07 A3041 RMK AO2 SLP305 T00001072
 
KAAO - Wichita/Jabara, Kansas, USA
Distance from station: N 93mi, 149km
Updated: Sun, 29-Nov-2020 7:54pm PST
Clear
Clear
 Wind from NNW
Wind: NNW 18 mph , 30 km/h
Temperature: 32°F , 0°C
Wind Chill: 21°F , -6°C
Dew Point: 16°F , -9°C
Humidity: 51%
Barometer: 30.40 inHg , 1029.5 hPa
Clouds: Clear
Visibility: 10 miles , 16 km
2020/11/30 03:54 KAAO 300354Z AUTO 34016KT 10SM CLR 00/M09 A3040 RMK AO2 PK WND 34027/0342 SLP305 T00001089
KWLD - Winfield/Arkansa, Kansas, USA
Distance from station: N 52mi, 84km
Updated: Sun, 29-Nov-2020 7:54pm PST
Clear
Clear
 Wind from N
Wind: N 18 mph , 30 km/h, Gust: 32 mph , 52 km/h
Temperature: 36°F , 2°C
Wind Chill: 26°F , -3°C
Dew Point: 16°F , -9°C
Humidity: 44%
Barometer: 30.40 inHg , 1029.5 hPa
Clouds: Clear
Visibility: 10 miles , 16 km
2020/11/30 03:54 KWLD 300354Z AUTO 35016G28KT 10SM CLR 02/M09 A3040 RMK AO2 PK WND 35028/0339 SLP300 T00171094
 
KAVK - Alva, Oklahoma, USA
Distance from station: WNW 94mi, 152km
Updated: Sun, 29-Nov-2020 8:35pm PST
Clear
Clear
 Wind from N
Wind: N 12 mph , 19 km/h
Temperature: 32°F , 0°C
Wind Chill: 23°F , -5°C
Dew Point: 16°F , -9°C
Humidity: 51%
Barometer: 30.47 inHg , 1031.8 hPa
Clouds: Clear
Visibility: 10 miles , 16 km
2020/11/30 04:35 KAVK 300435Z AUTO 36010KT 10SM CLR 00/M09 A3047 RMK AO2 PWINO TSNO
KBVO - Bartlesville, Oklahoma, USA
Distance from station: ENE 61mi, 98km
Updated: Sun, 29-Nov-2020 7:53pm PST
Clear
Clear
 Wind from NNW
Wind: NNW 7 mph , 11 km/h, Gust: 21 mph , 33 km/h
Temperature: 36°F , 2°C
Wind Chill: 30°F , -1°C
Dew Point: 21°F , -6°C
Humidity: 56%
Barometer: 30.37 inHg , 1028.4 hPa
Clouds: Clear
Visibility: 10 miles , 16 km
2020/11/30 03:53 KBVO 300353Z AUTO 34006G18KT 10SM CLR 02/M06 A3037 RMK AO2 SLP284 T00221061
 
KBKN - Blackwell, Oklahoma, USA
Distance from station: NW 29mi, 47km
Updated: Sun, 29-Nov-2020 8:35pm PST
Clear
Clear
 Wind from NNW
Wind: NNW 14 mph , 22 km/h
Temperature: 34°F , 1°C
Wind Chill: 25°F , -4°C
Dew Point: 25°F , -4°C
Humidity: 70%
Barometer: 30.42 inHg , 1030.1 hPa
Clouds: Clear
Visibility: 10 miles , 16 km
2020/11/30 04:35 KBKN 300435Z AUTO 33012KT 10SM CLR 01/M04 A3042 RMK AO2
KGCM - Claremore, Oklahoma, USA
Distance from station: E 86mi, 138km
Updated: Sun, 29-Nov-2020 8:35pm PST
Clear
Clear
 Wind from N
Wind: N 6 mph , 9 km/h
Temperature: 36°F , 2°C
Wind Chill: 31°F , -1°C
Dew Point: 18°F , -8°C
Humidity: 48%
Barometer: 30.35 inHg , 1027.8 hPa
Clouds: Clear
Visibility: 10 miles , 16 km
2020/11/30 04:35 KGCM 300435Z AUTO 35005KT 10SM CLR 02/M08 A3035 RMK AO2
 
KCQB - Chandler, Oklahoma, USA
Distance from station: SSE 50mi, 80km
Updated: Sun, 29-Nov-2020 8:35pm PST
Clear
Clear
 Wind from NNW
Wind: NNW 14 mph , 22 km/h
Temperature: 36°F , 2°C
Wind Chill: 27°F , -3°C
Dew Point: 21°F , -6°C
Humidity: 56%
Barometer: 30.40 inHg , 1029.5 hPa
Clouds: Clear
Visibility: 10 miles , 16 km
2020/11/30 04:35 KCQB 300435Z AUTO 34012KT 10SM CLR 02/M06 A3040 RMK AO2 T00161056
KCUH - Cushing, Oklahoma, USA
Distance from station: SSE 35mi, 57km
Updated: Sun, 29-Nov-2020 8:35pm PST
Clear
Clear
 Wind from N
Wind: N 10 mph , 17 km/h, Gust: 17 mph , 28 km/h
Temperature: 36°F , 2°C
Wind Chill: 29°F , -2°C
Dew Point: 21°F , -6°C
Humidity: 56%
Barometer: 30.39 inHg , 1029.1 hPa
Clouds: Clear
Visibility: 10 miles , 16 km
2020/11/30 04:35 KCUH 300435Z AUTO 35009G15KT 10SM CLR 02/M06 A3039 RMK AO2 T00161057
 
KRQO - El Reno Muni, Oklahoma, USA
Distance from station: SW 85mi, 137km
Updated: Sun, 29-Nov-2020 8:10pm PST
Clear
Clear
 Wind from N
Wind: N 22 mph , 35 km/h
Temperature: 34°F , 1°C
Wind Chill: 22°F , -6°C
Dew Point: 23°F , -5°C
Humidity: 65%
Barometer: 30.42 inHg , 1030.1 hPa
Clouds: Clear
Visibility: 10 miles , 16 km
2020/11/30 04:10 KRQO 300410Z AUTO 35019KT 10SM CLR 01/M05 A3042 RMK AO2 T00101047
KEND - Enid/Vance Afb, Oklahoma, USA
Distance from station: W 50mi, 81km
Updated: Sun, 29-Nov-2020 7:56pm PST
Clear
Clear
 Wind from N
Wind: N 17 mph , 28 km/h
Temperature: 34°F , 1°C
Wind Chill: 23°F , -5°C
Dew Point: 21°F , -6°C
Humidity: 60%
Barometer: 30.41 inHg , 1029.8 hPa
Clouds: Clear
Visibility: 10 miles , 16 km
2020/11/30 03:56 KEND 300356Z AUTO 35015KT 10SM CLR 01/M06 A3041 RMK AO2 SLP308 T00141057 $
 
KWDG - Enid/Woodring, Oklahoma, USA
Distance from station: W 42mi, 67km
Updated: Sun, 29-Nov-2020 8:35pm PST
Clear
Clear
 Wind from NNW
Wind: NNW 16 mph , 26 km/h
Temperature: 34°F , 1°C
Wind Chill: 24°F , -4°C
Dew Point: 23°F , -5°C
Humidity: 65%
Barometer: 30.42 inHg , 1030.1 hPa
Clouds: Clear
Visibility: 10 miles , 16 km
2020/11/30 04:35 KWDG 300435Z AUTO 34014KT 10SM CLR 01/M05 A3042 RMK AO2
KGOK - Guthrie, Oklahoma, USA
Distance from station: SSW 44mi, 71km
Updated: Sun, 29-Nov-2020 7:53pm PST
Clear
Clear
 Wind from NNW
Wind: NNW 7 mph , 11 km/h
Temperature: 36°F , 2°C
Wind Chill: 30°F , -1°C
Dew Point: 25°F , -4°C
Humidity: 65%
Barometer: 30.41 inHg , 1029.8 hPa
Clouds: Clear
Visibility: 10 miles , 16 km
2020/11/30 03:53 KGOK 300353Z AUTO 34006KT 10SM CLR 02/M04 A3041 RMK AO2 SLP304 T00171044
 
KOUN - Norman/Westheime, Oklahoma, USA
Distance from station: SSW 84mi, 136km
Updated: Sun, 29-Nov-2020 8:35pm PST
Clear
Clear
 Wind from NNW
Wind: NNW 21 mph , 33 km/h, Gust: 30 mph , 48 km/h
Temperature: 37°F , 3°C
Wind Chill: 26°F , -3°C
Dew Point: 21°F , -6°C
Humidity: 52%
Barometer: 30.38 inHg , 1028.8 hPa
Clouds: Clear
Visibility: 10 miles , 16 km
2020/11/30 04:35 KOUN 300435Z AUTO 34018G26KT 10SM CLR 03/M06 A3038 RMK AO2 T00271060
KOKC - Oklahoma City, Oklahoma, USA
Distance from station: SSW 78mi, 126km
Updated: Sun, 29-Nov-2020 7:52pm PST
Clear
Clear
 Wind from N
Wind: N 21 mph , 33 km/h, Gust: 28 mph , 44 km/h
Temperature: 36°F , 2°C
Wind Chill: 25°F , -4°C
Dew Point: 21°F , -6°C
Humidity: 56%
Barometer: 30.38 inHg , 1028.8 hPa
Clouds: Clear
Visibility: 10 miles , 16 km
2020/11/30 03:52 KOKC 300352Z 35018G24KT 10SM CLR 02/M06 A3038 RMK AO2 PK WND 01032/0305 SLP294 T00221061
 
KPWA - Okla City/Wiley, Oklahoma, USA
Distance from station: SSW 70mi, 113km
Updated: Sun, 29-Nov-2020 7:53pm PST
Clear
Clear
 Wind from N
Wind: N 17 mph , 28 km/h
Temperature: 37°F , 3°C
Wind Chill: 27°F , -3°C
Dew Point: 21°F , -6°C
Humidity: 52%
Barometer: 30.40 inHg , 1029.5 hPa
Clouds: Clear
Visibility: 10 miles , 16 km
2020/11/30 03:53 KPWA 300353Z 35015KT 10SM CLR 03/M06 A3040 RMK AO2 SLP298 T00281056
KRCE - Okla City/Page, Oklahoma, USA
Distance from station: SW 78mi, 126km
Updated: Sun, 29-Nov-2020 8:35pm PST
Light, Clear
Light, Clear
 Wind from N
Wind: N 18 mph , 30 km/h, Gust: 26 mph , 43 km/h
Temperature: 34°F , 1°C
Wind Chill: 23°F , -5°C
Dew Point: 21°F , -6°C
Humidity: 60%
Barometer: 30.41 inHg , 1029.8 hPa
Summary: Light
Clouds: Clear
Visibility: 10 miles , 16 km
2020/11/30 04:35 KRCE 300435Z AUTO 35016G23KT 10SM -UP CLR 01/M06 A3041 RMK AO2
 
KOKM - Okmulgee, Oklahoma, USA
Distance from station: SE 79mi, 127km
Updated: Sun, 29-Nov-2020 8:35pm PST
Clear
Clear
 Wind from N
Wind: N 16 mph , 26 km/h, Gust: 22 mph , 35 km/h
Temperature: 37°F , 3°C
Wind Chill: 28°F , -2°C
Dew Point: 21°F , -6°C
Humidity: 52%
Barometer: 30.35 inHg , 1027.8 hPa
Clouds: Clear
Visibility: 10 miles , 16 km
2020/11/30 04:35 KOKM 300435Z AUTO 35014G19KT 10SM CLR 03/M06 A3035 RMK AO2 T00311063
KPNC - Ponca City, Oklahoma, USA
Distance from station: N 22mi, 36km
Updated: Sun, 29-Nov-2020 7:53pm PST
Clear
Clear
 Wind from N
Wind: N 15 mph , 24 km/h
Temperature: 36°F , 2°C
Wind Chill: 27°F , -3°C
Dew Point: 19°F , -7°C
Humidity: 52%
Barometer: 30.40 inHg , 1029.5 hPa
Clouds: Clear
Visibility: 10 miles , 16 km
2020/11/30 03:53 KPNC 300353Z AUTO 35013KT 10SM CLR 02/M07 A3040 RMK AO2 SLP297 T00221072
 
KSNL - Shawnee, Oklahoma, USA
Distance from station: S 74mi, 119km
Updated: Sun, 29-Nov-2020 8:35pm PST
Clear
Clear
 Wind from N
Wind: N 13 mph , 20 km/h
Temperature: 36°F , 2°C
Wind Chill: 27°F , -3°C
Dew Point: 19°F , -7°C
Humidity: 52%
Barometer: 30.38 inHg , 1028.8 hPa
Clouds: Clear
Visibility: 10 miles , 16 km
2020/11/30 04:35 KSNL 300435Z AUTO 35011KT 10SM CLR 02/M07 A3038 RMK AO2 T00161070
KSWO - Stillwater, Oklahoma, USA
Distance from station: S 17mi, 28km
Updated: Sun, 29-Nov-2020 7:53pm PST
Clear
Clear
 Wind from NNW
Wind: NNW 9 mph , 15 km/h
Temperature: 36°F , 2°C
Wind Chill: 29°F , -2°C
Dew Point: 23°F , -5°C
Humidity: 60%
Barometer: 30.39 inHg , 1029.1 hPa
Clouds: Clear
Visibility: 10 miles , 16 km
2020/11/30 03:53 KSWO 300353Z 33008KT 10SM CLR 02/M05 A3039 RMK AO2 SLP294 T00221050
 
KTIK - Tinker Afb, Oklahoma, USA
Distance from station: SSW 72mi, 115km
Updated: Sun, 29-Nov-2020 7:56pm PST
Clear
Clear
 Wind from N
Wind: N 20 mph , 31 km/h
Temperature: 36°F , 2°C
Wind Chill: 25°F , -4°C
Dew Point: 23°F , -5°C
Humidity: 60%
Barometer: 30.37 inHg , 1028.4 hPa
Clouds: Clear
Visibility: 10 miles , 16 km
2020/11/30 03:56 KTIK 300356Z AUTO 35017KT 10SM CLR 02/M05 A3037 RMK AO2 SLP299 T00241053
KTUL - Tulsa, Oklahoma, USA
Distance from station: ESE 65mi, 105km
Updated: Sun, 29-Nov-2020 7:53pm PST
Clear
Clear
 Wind from NNW
Wind: NNW 21 mph , 33 km/h, Gust: 29 mph , 46 km/h
Temperature: 37°F , 3°C
Wind Chill: 26°F , -3°C
Dew Point: 21°F , -6°C
Humidity: 52%
Barometer: 30.34 inHg , 1027.4 hPa
Clouds: Clear
Visibility: 10 miles , 16 km
2020/11/30 03:53 KTUL 300353Z 34018G25KT 10SM CLR 03/M06 A3034 RMK AO2 PK WND 36031/0255 SLP277 T00331056

Metar display script from Saratoga-Weather.org